Time;durP1;ratioP1;P1;durP2;ratioP2;P2;SDS_P1;SDS_P2;PMS_P1;PMS_P2;Temp;Humidity;BMP_temperature;BMP_pressure;BME280_temperature;BME280_humidity;BME280_pressure;Samples;Min_cycle;Max_cycle;Signal;HPM_P1;HPM_P2
2023/02/08 00:01:06;;;;;;;20.63;13.05;;;;;;;5.11;56.42;103079.63;5075816;28;20052;-66
2023/02/08 00:03:33;;;;;;;24.20;13.00;;;;;;;5.30;56.45;103084.13;5077121;28;20472;-66
2023/02/08 00:06:01;;;;;;;24.52;13.35;;;;;;;5.47;55.92;103082.53;5075935;28;20036;-65
2023/02/08 00:08:29;;;;;;;24.15;14.25;;;;;;;5.11;56.97;103079.63;5075486;28;20471;-66
2023/02/08 00:10:57;;;;;;;25.75;14.90;;;;;;;4.91;58.86;103073.44;5075439;28;20166;-66
2023/02/08 00:13:24;;;;;;;25.17;15.18;;;;;;;4.83;59.32;103079.16;5075872;28;20051;-65
2023/02/08 00:15:53;;;;;;;26.73;15.23;;;;;;;4.65;60.36;103068.94;5075995;28;20044;-65
2023/02/08 00:18:21;;;;;;;28.13;15.38;;;;;;;4.76;60.43;103079.16;5042701;28;20547;-65
2023/02/08 00:20:48;;;;;;;25.20;15.43;;;;;;;4.69;60.80;103063.91;5076590;28;20882;-66
2023/02/08 00:23:16;;;;;;;29.27;15.82;;;;;;;4.81;60.39;103070.34;5077235;28;20048;-66
2023/02/08 00:25:43;;;;;;;32.42;18.42;;;;;;;4.73;60.46;103071.41;5058168;28;20049;-65
2023/02/08 00:28:12;;;;;;;38.15;20.35;;;;;;;4.53;61.50;103065.22;5077103;28;20052;-66
2023/02/08 00:30:41;;;;;;;32.25;19.48;;;;;;;4.58;61.78;103059.97;5075118;28;20415;-66
2023/02/08 00:33:11;;;;;;;32.53;18.25;;;;;;;4.69;61.63;103056.53;5076651;28;20342;-66
2023/02/08 00:35:39;;;;;;;29.92;16.95;;;;;;;4.82;60.89;103061.09;5074331;28;20396;-66
2023/02/08 00:38:07;;;;;;;34.85;16.50;;;;;;;4.47;61.62;103055.16;5077089;28;20053;-66
2023/02/08 00:40:34;;;;;;;30.30;18.23;;;;;;;4.52;61.92;103056.19;5074857;28;20044;-66
2023/02/08 00:43:02;;;;;;;34.22;18.85;;;;;;;4.56;61.83;103049.25;5076647;28;20515;-66
2023/02/08 00:45:30;;;;;;;34.55;20.02;;;;;;;4.72;61.30;103045.19;5024879;28;20063;-67
2023/02/08 00:47:58;;;;;;;29.67;18.42;;;;;;;4.62;61.34;103046.72;5058757;28;20401;-67
2023/02/08 00:50:25;;;;;;;30.48;17.90;;;;;;;4.43;62.26;103046.56;5075884;28;20060;-66
2023/02/08 00:52:52;;;;;;;31.00;18.33;;;;;;;4.61;61.77;103056.78;5075343;28;20407;-66
2023/02/08 00:55:20;;;;;;;29.67;17.13;;;;;;;4.68;61.91;103054.00;5057821;28;20052;-66
2023/02/08 00:57:47;;;;;;;28.70;17.45;;;;;;;4.56;61.80;103052.00;5076007;28;20041;-66
2023/02/08 01:00:14;;;;;;;28.20;16.88;;;;;;;4.50;62.26;103054.72;5074680;28;20352;-66
2023/02/08 01:02:42;;;;;;;28.80;16.33;;;;;;;4.44;62.77;103053.72;5074411;28;20072;-67
2023/02/08 01:05:10;;;;;;;25.45;15.82;;;;;;;4.39;62.78;103044.50;5058371;28;20048;-67
2023/02/08 01:07:39;;;;;;;28.55;16.17;;;;;;;4.38;62.70;103051.84;5073931;28;20048;-66
2023/02/08 01:10:11;;;;;;;29.77;17.17;;;;;;;4.44;62.99;103053.72;5076095;28;20067;-66
2023/02/08 01:12:40;;;;;;;28.02;17.15;;;;;;;4.41;63.14;103050.59;5074601;28;20071;-66
2023/02/08 01:15:08;;;;;;;26.67;16.23;;;;;;;4.60;62.59;103053.22;5076185;28;20063;-66
2023/02/08 01:17:35;;;;;;;26.63;16.90;;;;;;;4.30;63.40;103049.38;5073826;28;20053;-66
2023/02/08 01:20:02;;;;;;;29.70;17.35;;;;;;;4.10;63.78;103054.03;5075949;28;20045;-65
2023/02/08 01:22:30;;;;;;;30.95;17.13;;;;;;;4.11;63.87;103057.59;5074299;28;20048;-65
2023/02/08 01:24:57;;;;;;;26.52;16.77;;;;;;;3.84;64.96;103062.25;5074516;28;20405;-65
2023/02/08 01:27:24;;;;;;;32.15;17.75;;;;;;;3.82;65.29;103060.81;5073712;28;20514;-66
2023/02/08 01:29:52;;;;;;;33.00;17.55;;;;;;;3.87;65.14;103066.47;5074741;28;20045;-66
2023/02/08 01:32:19;;;;;;;28.42;18.15;;;;;;;3.95;65.30;103066.22;5073792;28;20056;-66
2023/02/08 01:34:46;;;;;;;31.42;18.27;;;;;;;4.01;65.02;103068.13;5075701;28;20056;-66
2023/02/08 01:37:14;;;;;;;34.85;19.20;;;;;;;3.79;64.91;103069.38;5073630;28;20052;-67
2023/02/08 01:39:41;;;;;;;34.65;18.65;;;;;;;3.68;65.65;103083.69;5075644;28;20047;-66
2023/02/08 01:42:12;;;;;;;31.90;19.42;;;;;;;3.50;66.00;103075.28;5074149;28;20399;-66
2023/02/08 01:45:21;;;;;;;31.73;18.60;;;;;;;3.86;65.74;103071.06;5074303;28;20048;-66
2023/02/08 01:47:52;;;;;;;30.60;18.88;;;;;;;3.72;65.47;103074.00;5073723;28;20047;-66
2023/02/08 01:50:23;;;;;;;34.25;19.65;;;;;;;3.55;65.58;103073.59;5057286;28;20059;-66
2023/02/08 01:52:50;;;;;;;34.42;19.55;;;;;;;3.59;65.91;103074.03;5075569;28;20048;-66
2023/02/08 01:55:26;;;;;;;31.55;19.55;;;;;;;3.28;66.67;103074.63;5074955;28;20052;-66
2023/02/08 01:57:55;;;;;;;29.27;18.73;;;;;;;3.29;67.07;103077.16;5056596;28;20075;-66
2023/02/08 02:00:23;;;;;;;32.33;19.73;;;;;;;3.50;66.58;103067.09;5073500;28;20071;-67
2023/02/08 02:02:53;;;;;;;38.28;19.75;;;;;;;3.55;65.98;103073.59;5074093;28;20063;-65
2023/02/08 02:05:22;;;;;;;34.30;20.70;;;;;;;3.48;66.27;103075.50;5074644;28;20060;-66
2023/02/08 02:07:51;;;;;;;34.57;19.00;;;;;;;3.49;66.13;103074.44;5073637;28;20060;-65
2023/02/08 02:10:25;;;;;;;31.48;19.33;;;;;;;3.39;66.94;103065.84;5056910;28;20056;-65
2023/02/08 02:12:54;;;;;;;28.75;17.35;;;;;;;3.34;66.18;103068.34;5075375;28;20131;-66
2023/02/08 02:15:22;;;;;;;28.92;16.15;;;;;;;3.18;65.58;103066.03;5056950;28;20048;-65
2023/02/08 02:17:49;;;;;;;28.85;18.10;;;;;;;3.35;65.49;103059.97;5074515;28;20045;-65
2023/02/08 02:20:38;;;;;;;35.08;19.95;;;;;;;3.39;65.78;103055.81;5074732;28;20045;-65
2023/02/08 02:23:12;;;;;;;39.30;20.48;;;;;;;3.73;65.77;103056.63;5075122;28;20380;-65
2023/02/08 02:25:48;;;;;;;29.38;16.98;;;;;;;3.21;65.10;103050.13;5074421;28;20060;-66
2023/02/08 02:28:42;;;;;;;25.48;17.10;;;;;;;2.99;66.37;103051.34;5073242;28;20052;-66
2023/02/08 02:32:06;;;;;;;28.33;15.90;;;;;;;2.98;65.38;103040.69;5072839;28;20089;-65
2023/02/08 02:34:45;;;;;;;32.78;15.95;;;;;;;2.76;65.38;103036.41;5078569;28;20471;-66
2023/02/08 02:37:27;;;;;;;27.10;14.68;;;;;;;2.66;65.42;103039.53;5068172;28;20506;-66
2023/02/08 02:40:19;;;;;;;25.77;14.70;;;;;;;2.95;65.47;103028.31;5066255;28;20419;-66
2023/02/08 02:46:18;;;;;;;22.98;13.88;;;;;;;3.16;63.65;103030.00;5064944;28;20061;-64
2023/02/08 02:49:01;;;;;;;24.73;14.20;;;;;;;3.35;63.21;103027.28;5074781;28;20511;-66
2023/02/08 02:51:39;;;;;;;22.00;13.85;;;;;;;3.34;62.49;103012.00;5071390;28;20049;-67
2023/02/08 02:54:39;;;;;;;27.02;14.45;;;;;;;3.54;61.97;103011.97;5081262;28;20052;-66
2023/02/08 02:57:10;;;;;;;25.90;14.07;;;;;;;3.28;61.77;103011.97;5075491;28;20411;-66
2023/02/08 02:59:38;;;;;;;23.52;14.68;;;;;;;3.21;62.19;103020.16;5080064;28;20559;-65
2023/02/08 03:02:05;;;;;;;26.83;14.35;;;;;;;2.98;63.46;103010.72;5063035;28;20056;-65
2023/02/08 03:04:32;;;;;;;24.13;14.85;;;;;;;3.38;62.68;103010.53;5079811;28;20148;-66
2023/02/08 03:07:09;;;;;;;31.80;17.13;;;;;;;2.90;65.74;103009.03;5079219;28;20055;-66
2023/02/08 03:10:04;;;;;;;23.63;15.50;;;;;;;3.08;64.63;103011.16;5081177;28;20721;-65
2023/02/08 03:12:56;;;;;;;28.63;16.35;;;;;;;3.38;64.19;103001.53;5080711;28;20051;-65
2023/02/08 03:15:45;;;;;;;23.33;13.63;;;;;;;3.09;63.19;103002.78;5081064;28;20454;-65
2023/02/08 03:18:24;;;;;;;23.40;14.15;;;;;;;3.31;63.09;103001.50;5063215;28;20055;-65
2023/02/08 03:21:26;;;;;;;22.85;13.80;;;;;;;3.29;62.45;103005.50;5080873;28;20056;-66
2023/02/08 03:24:06;;;;;;;24.55;14.43;;;;;;;3.12;62.98;103013.25;5079501;28;20051;-65
2023/02/08 03:26:37;;;;;;;23.63;13.55;;;;;;;3.09;63.55;103010.94;5076011;28;21356;-65
2023/02/08 03:29:11;;;;;;;21.83;13.65;;;;;;;3.37;62.39;103005.28;5081295;28;20040;-66
2023/02/08 03:31:50;;;;;;;25.23;14.77;;;;;;;3.27;62.33;103008.44;5080618;28;20056;-66
2023/02/08 03:34:43;;;;;;;26.05;14.90;;;;;;;2.96;62.91;103004.66;5076390;28;20047;-66
2023/02/08 03:37:16;;;;;;;27.08;14.93;;;;;;;3.00;63.03;102993.13;5079662;28;20055;-66
2023/02/08 03:39:45;;;;;;;24.92;14.32;;;;;;;2.83;64.27;103001.91;5079914;28;20052;-65
2023/02/08 03:42:20;;;;;;;26.43;14.07;;;;;;;2.98;63.66;103006.09;5058510;28;20123;-66
2023/02/08 03:44:56;;;;;;;24.38;13.70;;;;;;;3.01;63.03;102994.81;5076594;28;20051;-66
2023/02/08 03:47:29;;;;;;;24.00;14.68;;;;;;;3.25;62.64;102993.34;5075948;28;20055;-66
2023/02/08 03:49:59;;;;;;;27.48;14.30;;;;;;;2.84;62.85;103003.59;5076435;28;20475;-66
2023/02/08 03:52:27;;;;;;;23.10;14.07;;;;;;;2.78;63.64;103007.13;5075651;28;20056;-66
2023/02/08 03:55:00;;;;;;;26.80;14.80;;;;;;;2.87;63.73;103008.59;5077596;28;20096;-65
2023/02/08 03:57:34;;;;;;;23.77;14.32;;;;;;;3.06;63.16;103016.81;5059083;28;20064;-65
2023/02/08 04:00:08;;;;;;;23.50;14.93;;;;;;;3.15;62.58;103018.28;5077767;28;20063;-65
2023/02/08 04:02:43;;;;;;;25.25;14.43;;;;;;;2.89;62.93;103015.53;5075357;28;20087;-64
2023/02/08 04:05:10;;;;;;;25.23;14.18;;;;;;;2.80;63.40;103014.06;5075689;28;20056;-66
2023/02/08 04:07:37;;;;;;;24.38;14.73;;;;;;;2.99;62.65;103013.25;5075820;28;20063;-65
2023/02/08 04:10:05;;;;;;;23.73;15.02;;;;;;;3.05;62.59;103017.84;5077363;28;20127;-66
2023/02/08 04:12:32;;;;;;;25.95;15.45;;;;;;;2.61;63.76;103011.28;5076944;28;20075;-65
2023/02/08 04:15:00;;;;;;;27.30;15.68;;;;;;;2.60;64.17;103010.44;5077227;28;20056;-66
2023/02/08 04:17:27;;;;;;;27.40;15.57;;;;;;;2.79;63.44;103014.25;5075253;28;20056;-65
2023/02/08 04:19:54;;;;;;;27.20;16.00;;;;;;;2.79;63.71;103009.63;5077328;28;20487;-65
2023/02/08 04:22:21;;;;;;;27.63;15.85;;;;;;;2.84;62.97;103009.03;5058622;28;20045;-66
2023/02/08 04:24:49;;;;;;;28.02;15.35;;;;;;;2.95;63.08;103011.97;5075673;28;20060;-66
2023/02/08 04:27:16;;;;;;;28.27;15.43;;;;;;;2.77;63.56;103005.47;5075402;28;20071;-65
2023/02/08 04:29:43;;;;;;;24.92;15.18;;;;;;;2.88;63.20;103011.13;5077067;28;20056;-66
2023/02/08 04:32:12;;;;;;;24.73;15.05;;;;;;;2.70;63.09;103000.00;5058645;28;20062;-66
2023/02/08 04:34:40;;;;;;;26.10;15.13;;;;;;;2.56;63.35;103000.16;5075371;28;20074;-65
2023/02/08 04:37:07;;;;;;;25.90;15.45;;;;;;;2.45;63.48;102996.16;5075336;28;20076;-65
2023/02/08 04:39:35;;;;;;;29.02;15.85;;;;;;;2.42;63.30;102987.56;5076749;28;20049;-66
2023/02/08 04:42:02;;;;;;;26.73;16.02;;;;;;;2.57;63.56;102985.50;5076692;28;20136;-66
2023/02/08 04:44:31;;;;;;;29.17;15.52;;;;;;;2.33;64.64;102976.03;5076705;28;20534;-66
2023/02/08 04:46:59;;;;;;;29.05;16.30;;;;;;;2.20;64.75;102987.69;5075340;28;20048;-66
2023/02/08 04:49:26;;;;;;;25.13;15.77;;;;;;;2.21;65.12;102980.38;5076458;28;20053;-66
2023/02/08 04:51:54;;;;;;;26.98;16.38;;;;;;;2.11;65.30;102979.94;5074765;28;20048;-66
2023/02/08 04:54:21;;;;;;;29.95;16.38;;;;;;;2.16;65.62;102974.72;5074752;28;20048;-67
2023/02/08 04:56:49;;;;;;;26.77;15.88;;;;;;;2.22;65.38;102972.03;5076044;28;20052;-68
2023/02/08 04:59:17;;;;;;;25.17;15.23;;;;;;;2.03;66.00;102978.22;5076542;28;20048;-67
2023/02/08 05:01:44;;;;;;;29.30;16.48;;;;;;;1.88;66.01;102977.50;5076139;28;20052;-66
2023/02/08 05:04:12;;;;;;;29.17;16.10;;;;;;;1.79;66.92;102973.28;5074879;28;20048;-65
2023/02/08 05:06:39;;;;;;;31.77;17.60;;;;;;;1.85;67.15;102963.47;5057113;28;20064;-65
2023/02/08 05:09:08;;;;;;;29.10;15.98;;;;;;;2.19;65.32;102975.16;5076027;28;20496;-65
2023/02/08 05:11:35;;;;;;;26.35;15.48;;;;;;;2.20;65.04;102963.22;5074560;28;20060;-66
2023/02/08 05:14:03;;;;;;;29.65;15.27;;;;;;;2.27;64.49;102969.53;5075821;28;20408;-66
2023/02/08 05:16:31;;;;;;;27.80;16.25;;;;;;;2.18;64.28;102968.03;5074310;28;20059;-66
2023/02/08 05:18:58;;;;;;;25.45;15.55;;;;;;;2.22;64.23;102954.88;5075774;28;20052;-66
2023/02/08 05:21:25;;;;;;;28.15;15.45;;;;;;;2.23;63.92;102965.53;5076276;28;20052;-66
2023/02/08 05:23:53;;;;;;;28.35;15.43;;;;;;;2.27;63.50;102966.81;5075520;28;20044;-66
2023/02/08 05:26:20;;;;;;;24.80;14.45;;;;;;;1.99;63.36;102974.22;5075342;28;20063;-65
2023/02/08 05:28:47;;;;;;;27.83;15.90;;;;;;;2.07;63.87;102971.34;5074426;28;20502;-66
2023/02/08 05:31:24;;;;;;;29.40;15.15;;;;;;;2.10;63.00;102972.81;5075344;28;20424;-66
2023/02/08 05:33:52;;;;;;;27.00;15.27;;;;;;;2.10;63.07;102973.66;5074065;28;20061;-66
2023/02/08 05:36:20;;;;;;;30.13;15.52;;;;;;;2.11;63.28;102966.34;5075191;28;20052;-66
2023/02/08 05:38:48;;;;;;;26.08;15.60;;;;;;;2.07;63.15;102965.91;5075470;28;20052;-66
2023/02/08 05:41:16;;;;;;;24.67;14.57;;;;;;;2.27;62.86;102966.81;5073891;28;20048;-66
2023/02/08 05:43:44;;;;;;;26.85;14.48;;;;;;;2.45;62.01;102962.69;5075276;28;20049;-65
2023/02/08 05:46:12;;;;;;;26.10;15.60;;;;;;;2.28;62.85;102967.66;5074872;28;20040;-67
2023/02/08 05:48:39;;;;;;;24.50;14.85;;;;;;;2.35;62.48;102963.09;5075534;28;20085;-66
2023/02/08 05:51:07;;;;;;;27.20;15.60;;;;;;;2.38;62.47;102968.09;5073590;28;20040;-66
2023/02/08 05:53:35;;;;;;;25.98;15.63;;;;;;;1.95;63.29;102972.94;5075027;28;20052;-66
2023/02/08 05:56:03;;;;;;;27.67;16.33;;;;;;;2.02;63.07;102973.00;5073517;28;20048;-66
2023/02/08 05:58:32;;;;;;;28.42;15.82;;;;;;;2.08;62.97;102969.44;5076008;28;20625;-66
2023/02/08 06:01:00;;;;;;;25.30;15.63;;;;;;;2.05;63.33;102970.72;5074613;28;20488;-66
2023/02/08 06:03:30;;;;;;;28.85;16.10;;;;;;;2.26;62.61;102965.16;5074751;28;20048;-67
2023/02/08 06:05:59;;;;;;;29.42;16.05;;;;;;;2.05;63.32;102970.72;5072807;28;20056;-66
2023/02/08 06:08:27;;;;;;;30.17;15.45;;;;;;;1.96;63.59;102981.94;5057345;28;20209;-66
2023/02/08 06:10:54;;;;;;;32.88;16.17;;;;;;;1.81;63.58;102960.34;5073159;28;20059;-66
2023/02/08 06:13:21;;;;;;;30.40;16.25;;;;;;;1.80;64.33;102968.69;5075228;28;20048;-66
2023/02/08 06:15:49;;;;;;;29.17;17.70;;;;;;;1.81;64.61;102960.34;5067010;28;20534;-66
2023/02/08 06:18:17;;;;;;;29.17;17.98;;;;;;;1.87;64.79;102964.13;5074675;28;20052;-66
2023/02/08 06:20:44;;;;;;;27.23;17.08;;;;;;;1.74;65.00;102967.63;5072765;28;20051;-66
2023/02/08 06:23:12;;;;;;;31.30;16.15;;;;;;;1.92;64.40;102969.78;5073565;28;20052;-66
2023/02/08 06:25:39;;;;;;;30.80;16.88;;;;;;;1.76;65.11;102973.69;5073157;28;20523;-66
2023/02/08 06:28:09;;;;;;;28.58;16.63;;;;;;;1.80;64.96;102979.53;5073897;28;20044;-65
2023/02/08 06:30:37;;;;;;;33.85;16.92;;;;;;;2.09;64.06;102990.16;5074478;28;20059;-66
2023/02/08 06:33:05;;;;;;;30.10;17.42;;;;;;;2.18;62.96;102997.09;5074870;28;20052;-66
2023/02/08 06:35:32;;;;;;;29.67;17.33;;;;;;;2.11;63.29;102997.06;5073367;28;20060;-66
2023/02/08 06:38:00;;;;;;;30.02;16.92;;;;;;;2.05;63.52;102989.72;5075338;28;20067;-67
2023/02/08 06:40:27;;;;;;;30.55;17.15;;;;;;;2.02;63.61;102992.84;5072917;28;20056;-66
2023/02/08 06:42:55;;;;;;;31.63;16.63;;;;;;;1.90;64.35;103004.50;5075048;28;20056;-67
2023/02/08 06:45:22;;;;;;;28.80;16.77;;;;;;;1.87;64.38;103000.28;5073292;28;20055;-66
2023/02/08 06:47:50;;;;;;;34.58;18.15;;;;;;;2.26;63.65;102997.78;5074710;28;20056;-66
2023/02/08 06:50:17;;;;;;;32.78;16.05;;;;;;;2.28;63.40;102995.66;5056574;28;20044;-66
2023/02/08 06:52:44;;;;;;;26.50;15.75;;;;;;;2.29;61.96;102997.38;5056892;28;20430;-68
2023/02/08 06:55:12;;;;;;;27.63;16.20;;;;;;;2.41;61.26;102996.78;5074982;28;20644;-68
2023/02/08 06:57:39;;;;;;;32.88;16.52;;;;;;;2.32;61.16;102998.00;5057125;28;20063;-67
2023/02/08 07:00:08;;;;;;;28.10;16.80;;;;;;;2.00;61.49;102994.94;5074835;28;20484;-66
2023/02/08 07:02:35;;;;;;;29.17;16.23;;;;;;;1.94;62.20;102994.88;5072939;28;20052;-67
2023/02/08 07:05:03;;;;;;;31.23;17.55;;;;;;;1.87;62.18;103000.28;5075003;28;20051;-67
2023/02/08 07:07:31;;;;;;;31.88;17.70;;;;;;;1.67;62.34;103006.66;5062746;28;20124;-67
2023/02/08 07:09:59;;;;;;;30.90;17.48;;;;;;;1.73;62.74;102998.53;5052927;28;20045;-66
2023/02/08 07:12:27;;;;;;;30.13;16.23;;;;;;;1.64;62.80;103002.44;5073110;28;20044;-66
2023/02/08 07:14:54;;;;;;;34.65;16.92;;;;;;;1.54;63.50;103012.81;5073411;28;20064;-66
2023/02/08 07:17:22;;;;;;;30.40;17.75;;;;;;;1.87;62.70;103000.28;5075625;28;20049;-65
2023/02/08 07:19:49;;;;;;;34.63;17.83;;;;;;;1.76;63.18;103000.84;5069371;28;20044;-72
2023/02/08 07:22:17;;;;;;;27.55;16.60;;;;;;;2.14;63.90;103004.81;5071935;28;20049;-67
2023/02/08 07:24:44;;;;;;;28.48;17.23;;;;;;;2.29;62.52;102999.22;5070521;28;20055;-71
2023/02/08 07:27:12;;;;;;;31.67;16.83;;;;;;;2.20;61.85;102998.56;5070771;28;20060;-68
2023/02/08 07:29:40;;;;;;;28.40;16.75;;;;;;;2.07;61.45;103003.97;5069880;28;20492;-68
2023/02/08 07:32:07;;;;;;;29.75;16.55;;;;;;;2.01;61.05;102996.59;5074383;28;20067;-67
2023/02/08 07:34:36;;;;;;;28.95;16.38;;;;;;;2.20;61.48;102989.56;5071263;28;20053;-75
2023/02/08 07:37:04;;;;;;;27.45;16.25;;;;;;;2.36;60.39;102996.53;5072626;28;20047;-74
2023/02/08 07:39:31;;;;;;;32.00;16.20;;;;;;;2.45;60.02;102993.44;5067702;28;20048;-71
2023/02/08 07:41:59;;;;;;;32.38;15.88;;;;;;;2.29;59.21;102999.22;5075047;28;20407;-70
2023/02/08 07:44:31;;;;;;;30.10;16.13;;;;;;;2.15;59.82;102989.34;5075910;28;20048;-71
2023/02/08 07:47:00;;;;;;;28.33;16.52;;;;;;;2.08;59.00;102994.75;5072256;28;20048;-68
2023/02/08 07:49:27;;;;;;;30.80;16.40;;;;;;;1.90;59.47;102994.44;5067115;28;20044;-69
2023/02/08 07:51:55;;;;;;;29.42;16.58;;;;;;;2.04;59.59;102987.22;5061964;28;20120;-70
2023/02/08 07:54:23;;;;;;;33.35;17.65;;;;;;;2.27;59.18;102988.56;5056128;28;20052;-71
2023/02/08 07:56:50;;;;;;;27.90;15.68;;;;;;;2.33;58.50;102991.50;5061380;28;20136;-70
2023/02/08 07:59:18;;;;;;;28.10;16.48;;;;;;;2.10;58.50;102989.97;5058018;28;20045;-70
2023/02/08 08:01:51;;;;;;;24.40;15.35;;;;;;;1.95;58.86;102991.97;5045242;28;20416;-70
2023/02/08 08:04:20;;;;;;;30.02;16.23;;;;;;;2.03;58.73;102994.53;5063056;28;20047;-69
2023/02/08 08:06:50;;;;;;;28.67;15.88;;;;;;;2.29;58.41;102993.78;5060816;28;20052;-69
2023/02/08 08:09:19;;;;;;;30.42;16.60;;;;;;;2.16;58.81;102986.41;5055733;28;20053;-69
2023/02/08 08:11:46;;;;;;;29.65;16.10;;;;;;;2.20;58.58;102990.41;5069762;28;20059;-65
2023/02/08 08:14:13;;;;;;;33.28;16.48;;;;;;;2.12;58.61;102973.44;5058048;28;20053;-69
2023/02/08 08:16:42;;;;;;;25.33;15.75;;;;;;;2.25;58.45;102989.78;5058980;28;20052;-67
2023/02/08 08:19:11;;;;;;;27.33;16.30;;;;;;;2.03;58.42;102983.66;5062322;28;20511;-69
2023/02/08 08:21:39;;;;;;;30.08;15.98;;;;;;;2.18;58.17;102980.78;5072156;28;20037;-68
2023/02/08 08:24:07;;;;;;;30.90;15.40;;;;;;;2.50;57.16;102976.50;5040729;28;20064;-69
2023/02/08 08:26:34;;;;;;;28.42;15.68;;;;;;;2.48;56.26;102979.41;5056983;28;20745;-68
2023/02/08 08:29:01;;;;;;;30.67;15.45;;;;;;;2.25;56.23;102977.06;5058134;28;20408;-70
2023/02/08 08:31:29;;;;;;;30.67;16.40;;;;;;;1.99;58.07;102976.94;5056119;28;20056;-67
2023/02/08 08:33:57;;;;;;;33.53;17.40;;;;;;;2.40;56.82;102976.91;5055015;28;20045;-68
2023/02/08 08:36:24;;;;;;;29.80;16.20;;;;;;;2.56;56.27;102970.25;5057541;28;20048;-69
2023/02/08 08:38:52;;;;;;;28.10;15.45;;;;;;;2.64;54.85;102979.06;5055741;28;20056;-68
2023/02/08 08:41:21;;;;;;;30.85;15.20;;;;;;;2.68;54.68;102974.03;5052155;28;20037;-68
2023/02/08 08:43:48;;;;;;;25.48;14.68;;;;;;;2.97;54.20;102976.38;5065796;28;20056;-68
2023/02/08 08:46:17;;;;;;;27.48;15.13;;;;;;;2.76;53.07;102969.22;5057543;28;20059;-69
2023/02/08 08:48:45;;;;;;;29.30;14.93;;;;;;;2.27;54.61;102972.25;5059908;28;20045;-68
2023/02/08 08:51:13;;;;;;;27.33;14.63;;;;;;;2.51;53.98;102968.13;5059500;28;20428;-69
2023/02/08 08:53:40;;;;;;;29.35;14.02;;;;;;;2.56;53.06;102970.25;5038477;28;20229;-68
2023/02/08 08:56:07;;;;;;;27.63;14.48;;;;;;;2.63;52.83;102962.94;5061704;28;20056;-68
2023/02/08 08:58:35;;;;;;;30.38;15.52;;;;;;;2.59;52.64;102957.06;5066997;28;20773;-67
2023/02/08 09:01:02;;;;;;;34.85;19.80;;;;;;;2.49;53.13;102963.94;5035359;28;20052;-71
2023/02/08 09:03:30;;;;;;;30.77;16.17;;;;;;;2.45;53.56;102957.25;5049157;28;20411;-70
2023/02/08 09:05:57;;;;;;;25.67;15.75;;;;;;;2.63;52.55;102949.34;5054215;28;20124;-69
2023/02/08 09:08:25;;;;;;;25.27;14.30;;;;;;;2.78;52.60;102948.09;5069541;28;20064;-68
2023/02/08 09:10:52;;;;;;;24.17;14.65;;;;;;;2.94;51.32;102949.56;5066751;28;20072;-68
2023/02/08 09:13:20;;;;;;;29.85;15.73;;;;;;;2.73;52.15;102945.16;5069080;28;20057;-69
2023/02/08 09:15:48;;;;;;;24.75;14.48;;;;;;;2.59;51.69;102943.47;5055430;28;20053;-67
2023/02/08 09:18:15;;;;;;;27.65;15.55;;;;;;;2.45;52.20;102940.91;5052243;28;20048;-69
2023/02/08 09:20:43;;;;;;;26.63;14.82;;;;;;;2.54;51.72;102936.97;5059965;28;20070;-68
2023/02/08 09:23:11;;;;;;;28.00;15.35;;;;;;;2.34;52.12;102936.91;5043767;28;20056;-70
2023/02/08 09:25:39;;;;;;;25.33;15.20;;;;;;;2.41;52.39;102939.69;5055791;28;20814;-68
2023/02/08 09:28:06;;;;;;;25.45;15.07;;;;;;;2.34;52.58;102939.63;5055703;28;20154;-69
2023/02/08 09:30:34;;;;;;;28.10;16.52;;;;;;;2.44;52.24;102936.53;5060243;28;20041;-69
2023/02/08 09:33:01;;;;;;;23.77;14.73;;;;;;;2.51;52.04;102929.22;5055283;28;20049;-68
2023/02/08 09:35:29;;;;;;;30.75;16.58;;;;;;;2.76;51.70;102935.75;5062924;28;20071;-70
2023/02/08 09:37:56;;;;;;;25.58;15.18;;;;;;;2.96;51.30;102931.16;5054565;28;20045;-67
2023/02/08 09:40:27;;;;;;;28.90;15.80;;;;;;;2.92;50.89;102921.72;5055569;28;20048;-68
2023/02/08 09:43:08;;;;;;;23.60;14.75;;;;;;;3.09;50.98;102922.97;5061876;28;20764;-69
2023/02/08 09:45:36;;;;;;;31.88;16.33;;;;;;;3.13;50.77;102919.63;5060086;28;20060;-68
2023/02/08 09:48:23;;;;;;;29.67;15.65;;;;;;;2.91;51.04;102922.78;5051232;28;20044;-69
2023/02/08 09:51:03;;;;;;;32.42;17.50;;;;;;;3.18;50.54;102917.13;5058677;28;20048;-68
2023/02/08 09:53:39;;;;;;;27.60;15.88;;;;;;;3.12;50.96;102908.97;5060437;28;20075;-67
2023/02/08 09:56:11;;;;;;;33.88;17.98;;;;;;;3.20;50.27;102904.13;5053493;28;20080;-67
2023/02/08 09:58:48;;;;;;;26.20;15.95;;;;;;;3.40;49.81;102904.06;5055669;28;20044;-69
2023/02/08 10:01:20;;;;;;;29.63;16.25;;;;;;;3.42;49.45;102904.69;5035666;28;20045;-68
2023/02/08 10:03:50;;;;;;;26.17;16.27;;;;;;;3.41;49.83;102908.50;5056532;28;20059;-67
2023/02/08 10:06:18;;;;;;;30.95;16.42;;;;;;;3.49;49.55;102918.34;5053060;28;20048;-67
2023/02/08 10:08:48;;;;;;;32.20;16.90;;;;;;;3.43;49.19;102911.84;5054240;28;20048;-68
2023/02/08 10:11:27;;;;;;;27.75;16.17;;;;;;;3.55;48.97;102907.41;5058549;28;20048;-67
2023/02/08 10:13:54;;;;;;;31.55;16.42;;;;;;;3.61;48.65;102912.00;5054876;28;20049;-68
2023/02/08 10:16:35;;;;;;;29.77;16.38;;;;;;;3.57;48.84;102907.19;5061309;28;20052;-68
2023/02/08 10:19:33;;;;;;;27.02;15.27;;;;;;;3.62;48.31;102904.66;5064080;28;20048;-68
2023/02/08 10:22:03;;;;;;;24.33;14.45;;;;;;;3.65;47.75;102915.13;5067988;28;20407;-67
2023/02/08 10:24:49;;;;;;;29.77;15.48;;;;;;;3.77;48.08;102902.50;5068914;28;20048;-69
2023/02/08 10:27:39;;;;;;;30.02;16.33;;;;;;;3.99;47.63;102907.44;5069648;28;20500;-68
2023/02/08 10:30:27;;;;;;;31.33;15.95;;;;;;;4.06;47.00;102916.44;5060965;28;20055;-68
2023/02/08 10:33:01;;;;;;;29.60;15.88;;;;;;;4.21;46.88;102914.28;5057624;28;20048;-67
2023/02/08 10:35:36;;;;;;;31.35;15.75;;;;;;;4.25;47.23;102914.69;5071196;28;20515;-68
2023/02/08 10:38:30;;;;;;;25.63;15.93;;;;;;;4.46;47.09;102919.81;5077531;28;20044;-66
2023/02/08 10:41:33;;;;;;;31.13;15.80;;;;;;;4.39;46.49;102913.56;5077581;28;20060;-68
2023/02/08 10:44:11;;;;;;;29.17;15.40;;;;;;;4.10;46.71;102916.84;5064850;28;20056;-68
2023/02/08 10:46:46;;;;;;;29.70;17.08;;;;;;;4.32;46.00;102908.09;5060788;28;20051;-68
2023/02/08 10:49:36;;;;;;;27.25;16.33;;;;;;;4.33;46.76;102911.69;5058621;28;20473;-68
2023/02/08 10:52:04;;;;;;;27.83;17.00;;;;;;;4.38;46.58;102909.97;5059427;28;20040;-68
2023/02/08 10:54:35;;;;;;;33.53;17.30;;;;;;;4.28;46.03;102915.06;5055779;28;20060;-70
2023/02/08 10:57:06;;;;;;;30.25;16.52;;;;;;;4.38;46.23;102918.16;5056830;28;20040;-69
2023/02/08 10:59:57;;;;;;;23.45;13.38;;;;;;;4.36;44.74;102920.25;5048327;28;20044;-67
2023/02/08 11:02:27;;;;;;;28.13;14.68;;;;;;;4.28;43.96;102912.34;5044315;28;20057;-69
2023/02/08 11:05:03;;;;;;;28.40;12.32;;;;;;;5.41;56.33;102905.75;5059156;28;20059;-39
2023/02/08 11:07:31;;;;;;;23.33;12.52;;;;;;;8.16;45.68;102894.78;5057109;28;20650;-70
2023/02/08 11:10:13;;;;;;;23.95;13.63;;;;;;;7.07;39.61;102905.81;5062063;28;20061;-71
2023/02/08 11:12:43;;;;;;;26.10;14.25;;;;;;;5.92;40.18;102908.16;5063588;28;20040;-70
2023/02/08 11:15:46;;;;;;;24.70;14.00;;;;;;;5.42;41.42;102905.53;5059518;28;20041;-72
2023/02/08 11:18:25;;;;;;;25.08;13.43;;;;;;;5.16;42.01;102902.25;5056352;28;20049;-71
2023/02/08 11:20:58;;;;;;;24.03;13.73;;;;;;;5.16;42.08;102908.53;5062040;28;20045;-71
2023/02/08 11:23:31;;;;;;;25.98;14.80;;;;;;;5.22;43.16;102899.44;5057809;28;20045;-72
2023/02/08 11:26:30;;;;;;;26.60;14.93;;;;;;;5.18;42.27;102894.63;5062000;28;20052;-72
2023/02/08 11:28:57;;;;;;;30.30;19.30;;;;;;;5.40;42.36;102884.97;5056603;28;20064;-70
2023/02/08 11:31:24;;;;;;;29.05;15.93;;;;;;;5.42;42.09;102880.94;5056953;28;20578;-70
2023/02/08 11:34:04;;;;;;;29.42;15.15;;;;;;;5.18;42.51;102886.44;5059692;28;20494;-70
2023/02/08 11:36:33;;;;;;;25.83;14.98;;;;;;;4.77;42.81;102886.19;5060550;28;20053;-70
2023/02/08 11:39:03;;;;;;;22.27;14.30;;;;;;;4.87;42.56;102883.78;5054946;28;20510;-69